sensor_id;sensor_type;location;lat;lon;timestamp;P1;durP1;ratioP1;P2;durP2;ratioP2
7179;SDS011;3631;42.152;24.756;2023-10-08T00:01:07;13.00;;;7.73;;
7179;SDS011;3631;42.152;24.756;2023-10-08T00:03:37;11.97;;;8.10;;
7179;SDS011;3631;42.152;24.756;2023-10-08T00:06:06;10.17;;;7.60;;
7179;SDS011;3631;42.152;24.756;2023-10-08T00:08:38;13.23;;;8.80;;
7179;SDS011;3631;42.152;24.756;2023-10-08T00:11:05;14.97;;;9.43;;
7179;SDS011;3631;42.152;24.756;2023-10-08T00:13:34;16.07;;;8.23;;
7179;SDS011;3631;42.152;24.756;2023-10-08T00:16:05;17.13;;;8.93;;
7179;SDS011;3631;42.152;24.756;2023-10-08T00:18:35;32.07;;;9.37;;
7179;SDS011;3631;42.152;24.756;2023-10-08T00:21:03;15.27;;;8.67;;
7179;SDS011;3631;42.152;24.756;2023-10-08T00:23:42;18.97;;;8.70;;
7179;SDS011;3631;42.152;24.756;2023-10-08T00:26:15;14.23;;;8.60;;
7179;SDS011;3631;42.152;24.756;2023-10-08T00:28:45;15.87;;;8.53;;
7179;SDS011;3631;42.152;24.756;2023-10-08T00:31:13;15.70;;;9.77;;
7179;SDS011;3631;42.152;24.756;2023-10-08T00:33:42;14.23;;;8.80;;
7179;SDS011;3631;42.152;24.756;2023-10-08T00:36:09;13.47;;;7.97;;
7179;SDS011;3631;42.152;24.756;2023-10-08T00:38:44;16.27;;;8.40;;
7179;SDS011;3631;42.152;24.756;2023-10-08T00:41:14;14.03;;;8.73;;
7179;SDS011;3631;42.152;24.756;2023-10-08T00:43:42;13.37;;;7.63;;
7179;SDS011;3631;42.152;24.756;2023-10-08T00:46:11;12.80;;;7.57;;
7179;SDS011;3631;42.152;24.756;2023-10-08T00:48:47;11.60;;;7.67;;
7179;SDS011;3631;42.152;24.756;2023-10-08T00:51:14;9.50;;;7.67;;
7179;SDS011;3631;42.152;24.756;2023-10-08T00:53:52;9.67;;;7.40;;
7179;SDS011;3631;42.152;24.756;2023-10-08T00:56:23;10.00;;;6.47;;
7179;SDS011;3631;42.152;24.756;2023-10-08T00:58:51;9.97;;;6.63;;
7179;SDS011;3631;42.152;24.756;2023-10-08T01:01:20;11.50;;;6.37;;
7179;SDS011;3631;42.152;24.756;2023-10-08T01:03:48;12.57;;;6.63;;
7179;SDS011;3631;42.152;24.756;2023-10-08T01:06:16;11.60;;;7.00;;
7179;SDS011;3631;42.152;24.756;2023-10-08T01:08:45;11.77;;;7.43;;
7179;SDS011;3631;42.152;24.756;2023-10-08T01:11:18;9.63;;;5.77;;
7179;SDS011;3631;42.152;24.756;2023-10-08T01:13:47;11.60;;;6.17;;
7179;SDS011;3631;42.152;24.756;2023-10-08T01:16:14;13.40;;;6.67;;
7179;SDS011;3631;42.152;24.756;2023-10-08T01:18:44;9.93;;;7.13;;
7179;SDS011;3631;42.152;24.756;2023-10-08T01:21:16;10.50;;;6.70;;
7179;SDS011;3631;42.152;24.756;2023-10-08T01:24:00;13.70;;;7.00;;
7179;SDS011;3631;42.152;24.756;2023-10-08T01:26:29;12.50;;;7.00;;
7179;SDS011;3631;42.152;24.756;2023-10-08T01:28:57;8.33;;;6.53;;
7179;SDS011;3631;42.152;24.756;2023-10-08T01:31:28;11.57;;;6.50;;
7179;SDS011;3631;42.152;24.756;2023-10-08T01:33:55;14.63;;;6.90;;
7179;SDS011;3631;42.152;24.756;2023-10-08T01:36:22;9.93;;;6.17;;
7179;SDS011;3631;42.152;24.756;2023-10-08T01:38:51;10.43;;;7.50;;
7179;SDS011;3631;42.152;24.756;2023-10-08T01:41:21;9.63;;;6.43;;
7179;SDS011;3631;42.152;24.756;2023-10-08T01:43:55;7.53;;;5.87;;
7179;SDS011;3631;42.152;24.756;2023-10-08T01:46:23;9.43;;;6.20;;
7179;SDS011;3631;42.152;24.756;2023-10-08T01:48:52;8.43;;;6.17;;
7179;SDS011;3631;42.152;24.756;2023-10-08T01:51:25;9.20;;;6.20;;
7179;SDS011;3631;42.152;24.756;2023-10-08T01:54:02;12.27;;;7.87;;
7179;SDS011;3631;42.152;24.756;2023-10-08T01:56:37;10.63;;;5.73;;
7179;SDS011;3631;42.152;24.756;2023-10-08T01:59:07;7.73;;;5.30;;
7179;SDS011;3631;42.152;24.756;2023-10-08T02:01:35;9.30;;;5.30;;
7179;SDS011;3631;42.152;24.756;2023-10-08T02:04:03;8.83;;;5.80;;
7179;SDS011;3631;42.152;24.756;2023-10-08T02:06:32;7.07;;;5.80;;
7179;SDS011;3631;42.152;24.756;2023-10-08T02:08:59;12.33;;;6.67;;
7179;SDS011;3631;42.152;24.756;2023-10-08T02:11:41;21.20;;;5.70;;
7179;SDS011;3631;42.152;24.756;2023-10-08T02:14:09;10.73;;;6.00;;
7179;SDS011;3631;42.152;24.756;2023-10-08T02:16:38;6.33;;;4.90;;
7179;SDS011;3631;42.152;24.756;2023-10-08T02:19:05;5.67;;;5.03;;
7179;SDS011;3631;42.152;24.756;2023-10-08T02:21:35;11.97;;;5.80;;
7179;SDS011;3631;42.152;24.756;2023-10-08T02:24:03;14.17;;;5.93;;
7179;SDS011;3631;42.152;24.756;2023-10-08T02:26:32;12.20;;;6.60;;
7179;SDS011;3631;42.152;24.756;2023-10-08T02:29:01;10.23;;;6.47;;
7179;SDS011;3631;42.152;24.756;2023-10-08T02:31:31;18.10;;;6.77;;
7179;SDS011;3631;42.152;24.756;2023-10-08T02:33:58;10.20;;;6.70;;
7179;SDS011;3631;42.152;24.756;2023-10-08T02:36:25;11.57;;;7.57;;
7179;SDS011;3631;42.152;24.756;2023-10-08T02:38:52;14.83;;;8.10;;
7179;SDS011;3631;42.152;24.756;2023-10-08T02:41:20;20.77;;;9.03;;
7179;SDS011;3631;42.152;24.756;2023-10-08T02:43:49;17.40;;;9.27;;
7179;SDS011;3631;42.152;24.756;2023-10-08T02:46:18;17.13;;;9.77;;
7179;SDS011;3631;42.152;24.756;2023-10-08T02:48:45;21.30;;;10.23;;
7179;SDS011;3631;42.152;24.756;2023-10-08T02:51:12;20.97;;;9.87;;
7179;SDS011;3631;42.152;24.756;2023-10-08T02:53:40;20.47;;;9.73;;
7179;SDS011;3631;42.152;24.756;2023-10-08T02:56:09;16.70;;;9.03;;
7179;SDS011;3631;42.152;24.756;2023-10-08T02:58:39;16.20;;;8.27;;
7179;SDS011;3631;42.152;24.756;2023-10-08T03:01:08;16.23;;;8.57;;
7179;SDS011;3631;42.152;24.756;2023-10-08T03:03:40;11.10;;;7.03;;
7179;SDS011;3631;42.152;24.756;2023-10-08T03:06:08;11.00;;;7.60;;
7179;SDS011;3631;42.152;24.756;2023-10-08T03:08:37;12.83;;;7.40;;
7179;SDS011;3631;42.152;24.756;2023-10-08T03:11:08;9.17;;;6.93;;
7179;SDS011;3631;42.152;24.756;2023-10-08T03:13:42;13.40;;;8.03;;
7179;SDS011;3631;42.152;24.756;2023-10-08T03:16:12;10.87;;;7.00;;
7179;SDS011;3631;42.152;24.756;2023-10-08T03:18:40;8.60;;;6.03;;
7179;SDS011;3631;42.152;24.756;2023-10-08T03:21:10;9.60;;;6.50;;
7179;SDS011;3631;42.152;24.756;2023-10-08T03:23:47;11.37;;;7.07;;
7179;SDS011;3631;42.152;24.756;2023-10-08T03:26:15;7.83;;;6.03;;
7179;SDS011;3631;42.152;24.756;2023-10-08T03:28:59;9.33;;;5.90;;
7179;SDS011;3631;42.152;24.756;2023-10-08T03:31:33;10.60;;;5.60;;
7179;SDS011;3631;42.152;24.756;2023-10-08T03:34:17;9.07;;;6.03;;
7179;SDS011;3631;42.152;24.756;2023-10-08T03:36:45;11.40;;;5.83;;
7179;SDS011;3631;42.152;24.756;2023-10-08T03:39:14;10.07;;;6.23;;
7179;SDS011;3631;42.152;24.756;2023-10-08T03:41:43;11.23;;;6.50;;
7179;SDS011;3631;42.152;24.756;2023-10-08T03:44:23;7.43;;;6.27;;
7179;SDS011;3631;42.152;24.756;2023-10-08T03:46:50;16.90;;;6.63;;
7179;SDS011;3631;42.152;24.756;2023-10-08T03:49:19;11.07;;;6.87;;
7179;SDS011;3631;42.152;24.756;2023-10-08T03:51:52;14.77;;;7.40;;
7179;SDS011;3631;42.152;24.756;2023-10-08T03:54:19;13.57;;;7.23;;
7179;SDS011;3631;42.152;24.756;2023-10-08T03:56:55;10.63;;;7.30;;
7179;SDS011;3631;42.152;24.756;2023-10-08T03:59:22;21.27;;;7.97;;
7179;SDS011;3631;42.152;24.756;2023-10-08T04:01:56;16.97;;;6.40;;
7179;SDS011;3631;42.152;24.756;2023-10-08T04:04:36;9.07;;;5.83;;
7179;SDS011;3631;42.152;24.756;2023-10-08T04:07:16;11.83;;;6.47;;
7179;SDS011;3631;42.152;24.756;2023-10-08T04:10:05;9.90;;;5.73;;
7179;SDS011;3631;42.152;24.756;2023-10-08T04:13:03;11.67;;;5.50;;
7179;SDS011;3631;42.152;24.756;2023-10-08T04:15:33;7.33;;;4.90;;
7179;SDS011;3631;42.152;24.756;2023-10-08T04:18:05;9.83;;;5.43;;
7179;SDS011;3631;42.152;24.756;2023-10-08T04:20:35;8.03;;;5.43;;
7179;SDS011;3631;42.152;24.756;2023-10-08T04:23:04;10.37;;;4.53;;
7179;SDS011;3631;42.152;24.756;2023-10-08T04:25:39;5.00;;;4.50;;
7179;SDS011;3631;42.152;24.756;2023-10-08T04:28:08;7.07;;;4.60;;
7179;SDS011;3631;42.152;24.756;2023-10-08T04:30:39;8.20;;;4.50;;
7179;SDS011;3631;42.152;24.756;2023-10-08T04:33:07;7.07;;;4.47;;
7179;SDS011;3631;42.152;24.756;2023-10-08T04:35:39;6.23;;;4.53;;
7179;SDS011;3631;42.152;24.756;2023-10-08T04:38:13;23.60;;;5.23;;
7179;SDS011;3631;42.152;24.756;2023-10-08T04:40:43;10.07;;;4.50;;
7179;SDS011;3631;42.152;24.756;2023-10-08T04:43:14;5.77;;;4.60;;
7179;SDS011;3631;42.152;24.756;2023-10-08T04:45:47;9.27;;;4.60;;
7179;SDS011;3631;42.152;24.756;2023-10-08T04:48:14;6.83;;;4.40;;
7179;SDS011;3631;42.152;24.756;2023-10-08T04:50:47;5.00;;;4.37;;
7179;SDS011;3631;42.152;24.756;2023-10-08T04:53:23;6.23;;;4.90;;
7179;SDS011;3631;42.152;24.756;2023-10-08T04:55:57;8.47;;;5.30;;
7179;SDS011;3631;42.152;24.756;2023-10-08T04:58:28;6.43;;;4.57;;
7179;SDS011;3631;42.152;24.756;2023-10-08T05:00:59;7.37;;;4.50;;
7179;SDS011;3631;42.152;24.756;2023-10-08T05:03:42;7.07;;;4.50;;
7179;SDS011;3631;42.152;24.756;2023-10-08T05:06:23;8.93;;;5.00;;
7179;SDS011;3631;42.152;24.756;2023-10-08T05:09:19;7.37;;;4.67;;
7179;SDS011;3631;42.152;24.756;2023-10-08T05:12:03;7.20;;;4.53;;
7179;SDS011;3631;42.152;24.756;2023-10-08T05:14:44;6.17;;;5.20;;
7179;SDS011;3631;42.152;24.756;2023-10-08T05:17:21;7.50;;;4.90;;
7179;SDS011;3631;42.152;24.756;2023-10-08T05:19:47;6.80;;;4.38;;
7179;SDS011;3631;42.152;24.756;2023-10-08T05:22:26;4.88;;;4.38;;
7179;SDS011;3631;42.152;24.756;2023-10-08T05:25:10;8.18;;;4.57;;
7179;SDS011;3631;42.152;24.756;2023-10-08T05:27:52;9.32;;;4.82;;
7179;SDS011;3631;42.152;24.756;2023-10-08T05:30:34;9.20;;;5.00;;
7179;SDS011;3631;42.152;24.756;2023-10-08T05:33:05;7.80;;;4.47;;
7179;SDS011;3631;42.152;24.756;2023-10-08T05:35:38;10.43;;;4.68;;
7179;SDS011;3631;42.152;24.756;2023-10-08T05:38:20;7.90;;;4.50;;
7179;SDS011;3631;42.152;24.756;2023-10-08T05:41:01;9.07;;;4.30;;
7179;SDS011;3631;42.152;24.756;2023-10-08T05:43:45;7.95;;;4.82;;
7179;SDS011;3631;42.152;24.756;2023-10-08T05:46:21;7.07;;;3.83;;
7179;SDS011;3631;42.152;24.756;2023-10-08T05:49:12;6.07;;;4.25;;
7179;SDS011;3631;42.152;24.756;2023-10-08T05:52:03;6.93;;;4.40;;
7179;SDS011;3631;42.152;24.756;2023-10-08T05:54:48;6.57;;;4.05;;
7179;SDS011;3631;42.152;24.756;2023-10-08T05:57:41;6.13;;;4.13;;
7179;SDS011;3631;42.152;24.756;2023-10-08T06:00:17;6.07;;;4.18;;
7179;SDS011;3631;42.152;24.756;2023-10-08T06:03:07;5.10;;;3.90;;
7179;SDS011;3631;42.152;24.756;2023-10-08T06:05:56;9.68;;;3.95;;
7179;SDS011;3631;42.152;24.756;2023-10-08T06:08:47;7.53;;;4.40;;
7179;SDS011;3631;42.152;24.756;2023-10-08T06:11:40;6.88;;;4.13;;
7179;SDS011;3631;42.152;24.756;2023-10-08T06:14:22;4.18;;;3.78;;
7179;SDS011;3631;42.152;24.756;2023-10-08T06:17:01;11.68;;;4.53;;
7179;SDS011;3631;42.152;24.756;2023-10-08T06:19:38;4.18;;;3.88;;
7179;SDS011;3631;42.152;24.756;2023-10-08T06:22:05;6.38;;;4.50;;
7179;SDS011;3631;42.152;24.756;2023-10-08T06:24:32;4.32;;;3.92;;
7179;SDS011;3631;42.152;24.756;2023-10-08T06:27:03;4.55;;;4.18;;
7179;SDS011;3631;42.152;24.756;2023-10-08T06:29:33;6.13;;;5.10;;
7179;SDS011;3631;42.152;24.756;2023-10-08T06:32:00;6.65;;;4.93;;
7179;SDS011;3631;42.152;24.756;2023-10-08T06:34:27;11.38;;;4.68;;
7179;SDS011;3631;42.152;24.756;2023-10-08T06:36:55;13.75;;;5.38;;
7179;SDS011;3631;42.152;24.756;2023-10-08T06:39:26;8.77;;;6.15;;
7179;SDS011;3631;42.152;24.756;2023-10-08T06:42:12;11.80;;;7.90;;
7179;SDS011;3631;42.152;24.756;2023-10-08T06:44:40;15.90;;;9.13;;
7179;SDS011;3631;42.152;24.756;2023-10-08T06:47:11;14.52;;;9.07;;
7179;SDS011;3631;42.152;24.756;2023-10-08T06:49:41;17.00;;;13.13;;
7179;SDS011;3631;42.152;24.756;2023-10-08T06:52:08;15.77;;;12.38;;
7179;SDS011;3631;42.152;24.756;2023-10-08T06:54:36;21.70;;;12.60;;
7179;SDS011;3631;42.152;24.756;2023-10-08T06:57:03;28.77;;;18.92;;
7179;SDS011;3631;42.152;24.756;2023-10-08T06:59:38;26.27;;;14.50;;
7179;SDS011;3631;42.152;24.756;2023-10-08T07:02:09;41.20;;;19.98;;
7179;SDS011;3631;42.152;24.756;2023-10-08T07:04:36;37.00;;;15.68;;
7179;SDS011;3631;42.152;24.756;2023-10-08T07:07:04;37.55;;;16.90;;
7179;SDS011;3631;42.152;24.756;2023-10-08T07:09:34;41.17;;;23.70;;
7179;SDS011;3631;42.152;24.756;2023-10-08T07:12:01;32.58;;;17.85;;
7179;SDS011;3631;42.152;24.756;2023-10-08T07:14:30;29.35;;;14.75;;
7179;SDS011;3631;42.152;24.756;2023-10-08T07:16:59;25.10;;;14.18;;
7179;SDS011;3631;42.152;24.756;2023-10-08T07:19:33;31.02;;;19.05;;
7179;SDS011;3631;42.152;24.756;2023-10-08T07:22:02;33.55;;;13.77;;
7179;SDS011;3631;42.152;24.756;2023-10-08T07:24:31;17.40;;;10.18;;
7179;SDS011;3631;42.152;24.756;2023-10-08T07:27:02;16.98;;;10.02;;
7179;SDS011;3631;42.152;24.756;2023-10-08T07:29:34;16.38;;;11.35;;
7179;SDS011;3631;42.152;24.756;2023-10-08T07:32:01;9.90;;;7.15;;
7179;SDS011;3631;42.152;24.756;2023-10-08T07:34:36;12.15;;;6.10;;
7179;SDS011;3631;42.152;24.756;2023-10-08T07:37:03;10.63;;;5.80;;
7179;SDS011;3631;42.152;24.756;2023-10-08T07:39:32;7.13;;;5.18;;
7179;SDS011;3631;42.152;24.756;2023-10-08T07:42:09;10.48;;;5.03;;
7179;SDS011;3631;42.152;24.756;2023-10-08T07:44:36;6.07;;;4.75;;
7179;SDS011;3631;42.152;24.756;2023-10-08T07:47:04;21.30;;;13.60;;
7179;SDS011;3631;42.152;24.756;2023-10-08T07:49:36;18.27;;;6.75;;
7179;SDS011;3631;42.152;24.756;2023-10-08T07:52:03;11.45;;;6.05;;
7179;SDS011;3631;42.152;24.756;2023-10-08T07:54:30;10.65;;;6.55;;
7179;SDS011;3631;42.152;24.756;2023-10-08T07:56:59;28.55;;;6.95;;
7179;SDS011;3631;42.152;24.756;2023-10-08T07:59:33;23.55;;;5.55;;
7179;SDS011;3631;42.152;24.756;2023-10-08T08:02:03;33.22;;;6.18;;
7179;SDS011;3631;42.152;24.756;2023-10-08T08:04:36;28.20;;;7.30;;
7179;SDS011;3631;42.152;24.756;2023-10-08T08:07:05;23.60;;;8.00;;
7179;SDS011;3631;42.152;24.756;2023-10-08T08:09:32;22.67;;;6.90;;
7179;SDS011;3631;42.152;24.756;2023-10-08T08:12:04;12.80;;;5.30;;
7179;SDS011;3631;42.152;24.756;2023-10-08T08:14:34;17.02;;;5.43;;
7179;SDS011;3631;42.152;24.756;2023-10-08T08:17:03;14.40;;;5.95;;
7179;SDS011;3631;42.152;24.756;2023-10-08T08:19:39;23.05;;;7.05;;
7179;SDS011;3631;42.152;24.756;2023-10-08T08:22:07;27.70;;;12.35;;
7179;SDS011;3631;42.152;24.756;2023-10-08T08:24:40;27.80;;;11.55;;
7179;SDS011;3631;42.152;24.756;2023-10-08T08:27:10;16.23;;;7.53;;
7179;SDS011;3631;42.152;24.756;2023-10-08T08:29:49;12.35;;;5.75;;
7179;SDS011;3631;42.152;24.756;2023-10-08T08:32:15;21.90;;;17.98;;
7179;SDS011;3631;42.152;24.756;2023-10-08T08:34:48;15.63;;;9.93;;
7179;SDS011;3631;42.152;24.756;2023-10-08T08:37:16;16.88;;;10.77;;
7179;SDS011;3631;42.152;24.756;2023-10-08T08:39:43;12.75;;;5.70;;
7179;SDS011;3631;42.152;24.756;2023-10-08T08:42:11;8.77;;;5.72;;
7179;SDS011;3631;42.152;24.756;2023-10-08T08:44:40;19.02;;;10.02;;
7179;SDS011;3631;42.152;24.756;2023-10-08T08:47:11;24.02;;;13.32;;
7179;SDS011;3631;42.152;24.756;2023-10-08T08:49:42;14.32;;;10.02;;
7179;SDS011;3631;42.152;24.756;2023-10-08T08:52:11;12.35;;;7.30;;
7179;SDS011;3631;42.152;24.756;2023-10-08T08:54:39;9.55;;;4.93;;
7179;SDS011;3631;42.152;24.756;2023-10-08T08:57:07;6.57;;;5.88;;
7179;SDS011;3631;42.152;24.756;2023-10-08T08:59:39;11.38;;;4.65;;
7179;SDS011;3631;42.152;24.756;2023-10-08T09:02:10;18.65;;;6.38;;
7179;SDS011;3631;42.152;24.756;2023-10-08T09:04:40;19.67;;;6.20;;
7179;SDS011;3631;42.152;24.756;2023-10-08T09:07:07;9.98;;;4.93;;
7179;SDS011;3631;42.152;24.756;2023-10-08T09:09:36;11.80;;;6.13;;
7179;SDS011;3631;42.152;24.756;2023-10-08T09:12:05;8.50;;;5.03;;
7179;SDS011;3631;42.152;24.756;2023-10-08T09:14:35;10.30;;;4.20;;
7179;SDS011;3631;42.152;24.756;2023-10-08T09:17:03;6.57;;;4.50;;
7179;SDS011;3631;42.152;24.756;2023-10-08T09:19:35;10.50;;;4.90;;
7179;SDS011;3631;42.152;24.756;2023-10-08T09:22:03;12.27;;;4.90;;
7179;SDS011;3631;42.152;24.756;2023-10-08T09:24:31;16.45;;;5.63;;
7179;SDS011;3631;42.152;24.756;2023-10-08T09:27:00;13.02;;;8.30;;
7179;SDS011;3631;42.152;24.756;2023-10-08T09:29:28;16.52;;;6.70;;
7179;SDS011;3631;42.152;24.756;2023-10-08T09:31:55;28.27;;;5.30;;
7179;SDS011;3631;42.152;24.756;2023-10-08T09:34:25;13.88;;;4.55;;
7179;SDS011;3631;42.152;24.756;2023-10-08T09:36:55;12.75;;;4.63;;
7179;SDS011;3631;42.152;24.756;2023-10-08T09:39:23;10.35;;;4.10;;
7179;SDS011;3631;42.152;24.756;2023-10-08T09:41:53;15.35;;;4.45;;
7179;SDS011;3631;42.152;24.756;2023-10-08T09:44:22;7.93;;;3.70;;
7179;SDS011;3631;42.152;24.756;2023-10-08T09:46:52;16.23;;;4.82;;
7179;SDS011;3631;42.152;24.756;2023-10-08T09:49:23;21.65;;;5.75;;
7179;SDS011;3631;42.152;24.756;2023-10-08T09:51:59;32.08;;;5.25;;
7179;SDS011;3631;42.152;24.756;2023-10-08T09:54:28;52.88;;;7.00;;
7179;SDS011;3631;42.152;24.756;2023-10-08T09:56:58;26.65;;;6.05;;
7179;SDS011;3631;42.152;24.756;2023-10-08T09:59:30;18.48;;;4.85;;
7179;SDS011;3631;42.152;24.756;2023-10-08T10:01:57;15.60;;;4.07;;
7179;SDS011;3631;42.152;24.756;2023-10-08T10:04:25;15.52;;;4.80;;
7179;SDS011;3631;42.152;24.756;2023-10-08T10:06:56;9.52;;;3.88;;
7179;SDS011;3631;42.152;24.756;2023-10-08T10:09:25;11.32;;;4.53;;
7179;SDS011;3631;42.152;24.756;2023-10-08T10:11:53;11.50;;;4.15;;
7179;SDS011;3631;42.152;24.756;2023-10-08T10:14:22;26.67;;;4.97;;
7179;SDS011;3631;42.152;24.756;2023-10-08T10:19:40;15.32;;;4.10;;
7179;SDS011;3631;42.152;24.756;2023-10-08T10:22:11;29.50;;;5.30;;
7179;SDS011;3631;42.152;24.756;2023-10-08T10:24:40;20.77;;;4.63;;
7179;SDS011;3631;42.152;24.756;2023-10-08T10:27:11;13.05;;;4.78;;
7179;SDS011;3631;42.152;24.756;2023-10-08T10:29:41;18.48;;;5.57;;
7179;SDS011;3631;42.152;24.756;2023-10-08T10:32:12;12.82;;;5.25;;
7179;SDS011;3631;42.152;24.756;2023-10-08T10:34:40;12.80;;;4.43;;
7179;SDS011;3631;42.152;24.756;2023-10-08T10:37:08;7.65;;;4.25;;
7179;SDS011;3631;42.152;24.756;2023-10-08T10:39:50;15.20;;;4.70;;
7179;SDS011;3631;42.152;24.756;2023-10-08T10:42:19;8.77;;;4.95;;
7179;SDS011;3631;42.152;24.756;2023-10-08T10:44:47;8.77;;;3.80;;
7179;SDS011;3631;42.152;24.756;2023-10-08T10:47:17;10.40;;;3.53;;
7179;SDS011;3631;42.152;24.756;2023-10-08T10:50:07;19.75;;;3.80;;
7179;SDS011;3631;42.152;24.756;2023-10-08T10:52:51;12.32;;;3.58;;
7179;SDS011;3631;42.152;24.756;2023-10-08T10:55:19;12.00;;;4.05;;
7179;SDS011;3631;42.152;24.756;2023-10-08T10:57:57;36.42;;;5.78;;
7179;SDS011;3631;42.152;24.756;2023-10-08T11:00:31;22.17;;;5.00;;
7179;SDS011;3631;42.152;24.756;2023-10-08T11:03:14;14.52;;;4.30;;
7179;SDS011;3631;42.152;24.756;2023-10-08T11:05:49;16.13;;;4.10;;
7179;SDS011;3631;42.152;24.756;2023-10-08T11:08:20;13.73;;;4.13;;
7179;SDS011;3631;42.152;24.756;2023-10-08T11:10:48;15.18;;;3.85;;
7179;SDS011;3631;42.152;24.756;2023-10-08T11:13:18;17.73;;;4.45;;
7179;SDS011;3631;42.152;24.756;2023-10-08T11:15:47;27.63;;;3.72;;
7179;SDS011;3631;42.152;24.756;2023-10-08T11:18:20;23.67;;;4.38;;
7179;SDS011;3631;42.152;24.756;2023-10-08T11:20:49;15.10;;;4.00;;
7179;SDS011;3631;42.152;24.756;2023-10-08T11:23:32;8.85;;;3.17;;
7179;SDS011;3631;42.152;24.756;2023-10-08T11:26:01;8.95;;;3.25;;
7179;SDS011;3631;42.152;24.756;2023-10-08T11:28:29;8.45;;;3.60;;
7179;SDS011;3631;42.152;24.756;2023-10-08T11:30:59;11.48;;;4.18;;
7179;SDS011;3631;42.152;24.756;2023-10-08T11:33:34;5.30;;;3.25;;
7179;SDS011;3631;42.152;24.756;2023-10-08T11:36:02;7.90;;;3.35;;
7179;SDS011;3631;42.152;24.756;2023-10-08T11:38:38;19.10;;;4.07;;
7179;SDS011;3631;42.152;24.756;2023-10-08T11:41:12;14.52;;;5.00;;
7179;SDS011;3631;42.152;24.756;2023-10-08T11:43:46;22.75;;;4.88;;
7179;SDS011;3631;42.152;24.756;2023-10-08T11:46:21;10.02;;;4.10;;
7179;SDS011;3631;42.152;24.756;2023-10-08T11:48:54;10.43;;;4.93;;
7179;SDS011;3631;42.152;24.756;2023-10-08T11:51:23;9.98;;;4.05;;
7179;SDS011;3631;42.152;24.756;2023-10-08T11:53:50;15.32;;;5.85;;
7179;SDS011;3631;42.152;24.756;2023-10-08T11:56:18;9.40;;;4.25;;
7179;SDS011;3631;42.152;24.756;2023-10-08T11:58:48;10.65;;;4.20;;
7179;SDS011;3631;42.152;24.756;2023-10-08T12:01:16;7.32;;;4.40;;
7179;SDS011;3631;42.152;24.756;2023-10-08T12:03:43;12.40;;;3.95;;
7179;SDS011;3631;42.152;24.756;2023-10-08T12:06:12;11.82;;;5.07;;
7179;SDS011;3631;42.152;24.756;2023-10-08T12:08:43;13.98;;;4.75;;
7179;SDS011;3631;42.152;24.756;2023-10-08T12:11:12;29.67;;;4.68;;
7179;SDS011;3631;42.152;24.756;2023-10-08T12:13:39;22.38;;;4.78;;
7179;SDS011;3631;42.152;24.756;2023-10-08T12:16:12;16.92;;;4.50;;
7179;SDS011;3631;42.152;24.756;2023-10-08T12:18:44;8.98;;;3.42;;
7179;SDS011;3631;42.152;24.756;2023-10-08T12:21:15;8.80;;;4.20;;
7179;SDS011;3631;42.152;24.756;2023-10-08T12:23:42;9.43;;;3.53;;
7179;SDS011;3631;42.152;24.756;2023-10-08T12:26:11;9.32;;;3.88;;
7179;SDS011;3631;42.152;24.756;2023-10-08T12:28:41;8.63;;;3.38;;
7179;SDS011;3631;42.152;24.756;2023-10-08T12:31:10;12.23;;;3.70;;
7179;SDS011;3631;42.152;24.756;2023-10-08T12:33:37;8.57;;;4.25;;
7179;SDS011;3631;42.152;24.756;2023-10-08T12:36:05;12.20;;;3.17;;
7179;SDS011;3631;42.152;24.756;2023-10-08T12:38:38;7.38;;;3.45;;
7179;SDS011;3631;42.152;24.756;2023-10-08T12:41:07;10.65;;;4.43;;
7179;SDS011;3631;42.152;24.756;2023-10-08T12:43:38;11.80;;;4.05;;
7179;SDS011;3631;42.152;24.756;2023-10-08T12:46:07;6.90;;;3.72;;
7179;SDS011;3631;42.152;24.756;2023-10-08T12:48:43;8.38;;;3.53;;
7179;SDS011;3631;42.152;24.756;2023-10-08T12:51:13;9.95;;;3.42;;
7179;SDS011;3631;42.152;24.756;2023-10-08T12:53:42;8.90;;;3.53;;
7179;SDS011;3631;42.152;24.756;2023-10-08T12:56:16;10.18;;;3.75;;
7179;SDS011;3631;42.152;24.756;2023-10-08T12:58:46;10.80;;;4.22;;
7179;SDS011;3631;42.152;24.756;2023-10-08T13:01:14;4.95;;;3.55;;
7179;SDS011;3631;42.152;24.756;2023-10-08T13:03:42;13.38;;;4.40;;
7179;SDS011;3631;42.152;24.756;2023-10-08T13:06:12;11.60;;;3.63;;
7179;SDS011;3631;42.152;24.756;2023-10-08T13:08:48;9.35;;;4.03;;
7179;SDS011;3631;42.152;24.756;2023-10-08T13:11:18;11.75;;;5.00;;
7179;SDS011;3631;42.152;24.756;2023-10-08T13:13:48;5.47;;;3.97;;
7179;SDS011;3631;42.152;24.756;2023-10-08T13:16:16;7.93;;;4.15;;
7179;SDS011;3631;42.152;24.756;2023-10-08T13:18:43;11.13;;;4.85;;
7179;SDS011;3631;42.152;24.756;2023-10-08T13:21:11;8.63;;;4.05;;
7179;SDS011;3631;42.152;24.756;2023-10-08T13:23:38;14.63;;;4.88;;
7179;SDS011;3631;42.152;24.756;2023-10-08T13:26:06;9.80;;;5.30;;
7179;SDS011;3631;42.152;24.756;2023-10-08T13:28:34;5.93;;;4.72;;
7179;SDS011;3631;42.152;24.756;2023-10-08T13:31:01;7.03;;;4.60;;
7179;SDS011;3631;42.152;24.756;2023-10-08T13:33:35;6.88;;;4.47;;
7179;SDS011;3631;42.152;24.756;2023-10-08T13:36:04;6.25;;;3.97;;
7179;SDS011;3631;42.152;24.756;2023-10-08T13:38:33;7.45;;;4.05;;
7179;SDS011;3631;42.152;24.756;2023-10-08T13:41:01;12.32;;;4.13;;
7179;SDS011;3631;42.152;24.756;2023-10-08T13:43:31;10.68;;;4.07;;
7179;SDS011;3631;42.152;24.756;2023-10-08T13:46:03;14.60;;;4.30;;
7179;SDS011;3631;42.152;24.756;2023-10-08T13:48:32;6.50;;;3.70;;
7179;SDS011;3631;42.152;24.756;2023-10-08T13:51:01;10.02;;;4.10;;
7179;SDS011;3631;42.152;24.756;2023-10-08T13:53:30;8.65;;;4.10;;
7179;SDS011;3631;42.152;24.756;2023-10-08T13:55:58;10.05;;;3.83;;
7179;SDS011;3631;42.152;24.756;2023-10-08T13:58:26;7.20;;;3.95;;
7179;SDS011;3631;42.152;24.756;2023-10-08T14:00:56;9.45;;;3.95;;
7179;SDS011;3631;42.152;24.756;2023-10-08T14:03:25;9.10;;;3.97;;
7179;SDS011;3631;42.152;24.756;2023-10-08T14:05:56;10.45;;;4.60;;
7179;SDS011;3631;42.152;24.756;2023-10-08T14:08:27;13.20;;;4.38;;
7179;SDS011;3631;42.152;24.756;2023-10-08T14:10:56;4.18;;;3.50;;
7179;SDS011;3631;42.152;24.756;2023-10-08T14:13:28;8.68;;;3.47;;
7179;SDS011;3631;42.152;24.756;2023-10-08T14:15:58;8.60;;;3.40;;
7179;SDS011;3631;42.152;24.756;2023-10-08T14:18:30;10.95;;;4.25;;
7179;SDS011;3631;42.152;24.756;2023-10-08T14:21:05;6.82;;;4.00;;
7179;SDS011;3631;42.152;24.756;2023-10-08T14:23:35;6.40;;;3.83;;
7179;SDS011;3631;42.152;24.756;2023-10-08T14:26:04;8.57;;;3.88;;
7179;SDS011;3631;42.152;24.756;2023-10-08T14:28:32;6.75;;;4.45;;
7179;SDS011;3631;42.152;24.756;2023-10-08T14:31:17;6.00;;;3.50;;
7179;SDS011;3631;42.152;24.756;2023-10-08T14:33:48;9.23;;;3.45;;
7179;SDS011;3631;42.152;24.756;2023-10-08T14:36:30;8.27;;;3.30;;
7179;SDS011;3631;42.152;24.756;2023-10-08T14:39:15;7.13;;;3.40;;
7179;SDS011;3631;42.152;24.756;2023-10-08T14:41:59;9.80;;;2.95;;
7179;SDS011;3631;42.152;24.756;2023-10-08T14:44:43;10.95;;;3.65;;
7179;SDS011;3631;42.152;24.756;2023-10-08T14:47:13;12.13;;;3.67;;
7179;SDS011;3631;42.152;24.756;2023-10-08T14:49:40;11.43;;;3.85;;
7179;SDS011;3631;42.152;24.756;2023-10-08T14:52:08;10.80;;;3.60;;
7179;SDS011;3631;42.152;24.756;2023-10-08T14:54:36;12.82;;;3.67;;
7179;SDS011;3631;42.152;24.756;2023-10-08T14:57:03;8.85;;;3.28;;
7179;SDS011;3631;42.152;24.756;2023-10-08T14:59:30;13.57;;;3.70;;
7179;SDS011;3631;42.152;24.756;2023-10-08T15:01:58;12.15;;;4.53;;
7179;SDS011;3631;42.152;24.756;2023-10-08T15:04:26;8.80;;;3.08;;
7179;SDS011;3631;42.152;24.756;2023-10-08T15:06:54;25.30;;;6.30;;
7179;SDS011;3631;42.152;24.756;2023-10-08T15:09:21;15.98;;;3.65;;
7179;SDS011;3631;42.152;24.756;2023-10-08T15:11:49;13.43;;;4.35;;
7179;SDS011;3631;42.152;24.756;2023-10-08T15:14:17;8.18;;;3.92;;
7179;SDS011;3631;42.152;24.756;2023-10-08T15:16:45;8.27;;;3.90;;
7179;SDS011;3631;42.152;24.756;2023-10-08T15:19:17;10.68;;;3.30;;
7179;SDS011;3631;42.152;24.756;2023-10-08T15:21:46;7.88;;;3.83;;